Sovereign — 9HUE9 — position and weather

sailwx.info

Track history (hours):
 
Tides and Currents Weather Stations Pressure Air Temp Water Temp Dewpoint Dewpoint Depression Visibility Wind Speed Wind Dir Waves Ship Positions

Sovereign

Last reported at 2019-Feb-23 17:30 UTC. Time now 2019-Feb-23 17:56 UTC.
Position S 22°54' W 043°11'.

Length 269 m; draft 7.8 m.

Type: Passenger vessel. MMSI: 249539000.

Date/timePositionNaut miles runAvg speedWind from/ knotsBaromVisibWave heightAir tempDewpointWater temp
2019-Feb-23 17:30S 22°54' W 043°11'0 0.0
2019-Feb-23 16:57S 22°54' W 043°11'0 0.0
2019-Feb-23 16:30S 22°54' W 043°11'0 0.0
2019-Feb-23 16:00S 22°54' W 043°11'0 0.0
2019-Feb-23 15:30S 22°54' W 043°11'0 0.0
2019-Feb-23 15:00S 22°54' W 043°11'0 0.0
2019-Feb-23 14:30S 22°54' W 043°11'0 0.0
2019-Feb-23 14:00S 22°54' W 043°11'0 0.0
2019-Feb-23 13:30S 22°54' W 043°11'0 0.0
2019-Feb-23 13:00S 22°54' W 043°11'0 0.0
2019-Feb-23 12:27S 22°54' W 043°11'0 0.0
2019-Feb-23 12:00S 22°54' W 043°11'1 1.7
2019-Feb-23 11:30S 22°53' W 043°10'4 8.6
2019-Feb-23 11:00S 22°57' W 043°08'815.0
2019-Feb-23 10:30S 23°05' W 043°10'816.5
2019-Feb-23 10:00S 23°10' W 043°17'917.3
2019-Feb-23 09:30S 23°14' W 043°25'917.3
2019-Feb-23 09:00S 23°19' W 043°33'816.9
2019-Feb-23 08:30S 23°23' W 043°41'1116.3
2019-Feb-23 07:49S 23°28' W 043°52'713.7
2019-Feb-23 07:17S 23°31' W 043°59'414.4
2019-Feb-23 07:00S 23°33' W 044°03'714.8
2019-Feb-23 06:29S 23°36' W 044°11'1014.9
2019-Feb-23 05:50S 23°41' W 044°20'7115.1
2019-Feb-23 01:10S 24°14' W 045°29'316.9
2019-Feb-23 00:58S 24°15' W 045°32'2316.6
2019-Feb-22 23:36S 24°13' W 045°56'217.4
2019-Feb-22 23:30S 24°12' W 045°58'1017.4
2019-Feb-22 22:56S 24°07' W 046°08'817.7
2019-Feb-22 22:30S 24°04' W 046°15'612.3
2019-Feb-22 22:00S 23°60' W 046°20'2 0.2
2019-Feb-22 09:39S 23°58' W 046°18'1 4.9
2019-Feb-22 09:30S 23°58' W 046°18'3 6.4
2019-Feb-22 09:00S 24°00' W 046°20'3 6.1
2019-Feb-22 08:30S 24°03' W 046°19'4 8.8
2019-Feb-22 08:01S 24°04' W 046°14'3 6.7
2019-Feb-22 07:30S 24°05' W 046°11'4 7.5
2019-Feb-22 07:00S 24°06' W 046°07'4 7.7
2019-Feb-22 06:30S 24°08' W 046°03'7 7.6
2019-Feb-22 05:32S 24°13' W 045°57'46 8.4
2019-Feb-22 00:00S 24°12' W 045°06'70 7.7 050 / 41017.0 25.023.526.0
2019-Feb-21 14:52S 23°51' W 043°52'3 9.1
2019-Feb-21 14:29S 23°50' W 043°49'5 9.2
2019-Feb-21 13:58S 23°48' W 043°44'4 9.2
2019-Feb-21 13:29S 23°47' W 043°39'4 9.2
2019-Feb-21 13:00S 23°46' W 043°35'5 9.1
2019-Feb-21 12:30S 23°44' W 043°30'5 9.0
2019-Feb-21 12:00S 23°43' W 043°25'5 9.0
2019-Feb-21 11:29S 23°41' W 043°21'4 8.9
2019-Feb-21 11:00S 23°40' W 043°16'6 9.0
2019-Feb-21 10:18S 23°38' W 043°09'5 9.1
2019-Feb-21 09:46S 23°37' W 043°05'3 9.1
2019-Feb-21 09:26S 23°36' W 043°01'4 9.1
2019-Feb-21 09:00S 23°34' W 042°57'5 9.2
2019-Feb-21 08:30S 23°33' W 042°52'7 9.1
2019-Feb-21 07:45S 23°31' W 042°45'2 9.1
2019-Feb-21 07:29S 23°30' W 042°43'4 9.2
2019-Feb-21 07:00S 23°29' W 042°38'5 9.1
2019-Feb-21 06:30S 23°27' W 042°34'5 9.2
2019-Feb-21 06:00S 23°26' W 042°29'5 9.2
2019-Feb-21 05:28S 23°24' W 042°24'6 9.4
2019-Feb-21 04:51S 23°23' W 042°18'27 8.1
2019-Feb-21 01:30S 23°07' W 041°54'1912.8
2019-Feb-21 00:00S 22°48' W 041°48'6145.9 230 / 41015.0 25.023.526.0
2019-Feb-20 23:57S 22°53' W 041°52'9 0.7
2019-Feb-20 11:03S 22°44' W 041°53'9 7.0
2019-Feb-20 09:44S 22°53' W 041°52'11 8.0
2019-Feb-20 08:19S 23°04' W 041°56'3 7.9
2019-Feb-20 07:57S 23°06' W 041°58'7 8.2
2019-Feb-20 07:07S 23°09' W 042°04'17 8.2
2019-Feb-20 05:02S 23°15' W 042°22'2 8.3
2019-Feb-20 04:44S 23°15' W 042°24'2 8.3
2019-Feb-20 04:30S 23°16' W 042°26'4 8.3
2019-Feb-20 04:00S 23°17' W 042°30'9 8.6
2019-Feb-20 03:01S 23°18' W 042°40'16 8.2
2019-Feb-20 01:02S 23°09' W 042°54'1 8.3
2019-Feb-20 00:53S 23°08' W 042°55'3 8.3
2019-Feb-20 00:31S 23°06' W 042°58'4 8.4
2019-Feb-20 00:01S 23°03' W 043°02'4224.8
2019-Feb-20 00:00S 23°00' W 043°00'510.2 050 / 81012.0 27.025.627.0
2019-Feb-19 23:30S 23°01' W 043°05'611.8
2019-Feb-19 23:00S 22°56' W 043°08'3 6.8
2019-Feb-19 22:30S 22°54' W 043°11'0 0.3
2019-Feb-19 21:59S 22°54' W 043°11'0 0.0
2019-Feb-19 21:29S 22°54' W 043°11'0 0.0
2019-Feb-19 20:59S 22°54' W 043°11'0 0.0
2019-Feb-19 20:29S 22°54' W 043°11'0 0.0
2019-Feb-19 19:59S 22°54' W 043°11'0 0.0
2019-Feb-19 19:29S 22°54' W 043°11'0 0.0
2019-Feb-19 18:59S 22°54' W 043°11'0 0.0
2019-Feb-19 18:29S 22°54' W 043°11'0 0.0
2019-Feb-19 17:56S 22°54' W 043°11'0 0.0
2019-Feb-19 17:29S 22°54' W 043°11'0 0.0
2019-Feb-19 16:59S 22°54' W 043°11'0 0.0
2019-Feb-19 16:29S 22°54' W 043°11'0 0.0
2019-Feb-19 15:56S 22°54' W 043°11'0 0.0
2019-Feb-19 15:26S 22°54' W 043°11'0 0.0
2019-Feb-19 14:59S 22°54' W 043°11'0 0.0
2019-Feb-19 14:29S 22°54' W 043°11'0 0.0
2019-Feb-19 13:59S 22°54' W 043°11'0 0.0
2019-Feb-19 13:29S 22°54' W 043°11'0 0.0
2019-Feb-19 12:59S 22°54' W 043°11'0 0.0
2019-Feb-19 12:29S 22°54' W 043°11'0 0.2
2019-Feb-19 12:00S 22°54' W 043°11'3 5.1
2019-Feb-19 11:31S 22°55' W 043°09'4 8.0
2019-Feb-19 11:01S 22°59' W 043°09'510.1
2019-Feb-19 10:31S 23°03' W 043°10'510.0
2019-Feb-19 10:01S 23°08' W 043°11'713.8
2019-Feb-19 09:31S 23°13' W 043°17'815.3
2019-Feb-19 09:00S 23°16' W 043°25'815.2
2019-Feb-19 08:30S 23°19' W 043°32'714.8
2019-Feb-19 08:00S 23°22' W 043°40'714.5
2019-Feb-19 07:30S 23°25' W 043°47'814.6
2019-Feb-19 06:58S 23°29' W 043°54'714.7
2019-Feb-19 06:29S 23°32' W 044°01'814.9
2019-Feb-19 05:56S 23°36' W 044°09'1115.0
2019-Feb-19 05:14S 23°41' W 044°20'7213.7
2019-Feb-19 00:00S 24°12' W 045°30'3116.6 360 / 151013.0 25.023.526.0
2019-Feb-18 22:06S 24°09' W 046°04'215.4
2019-Feb-18 22:00S 24°08' W 046°06'815.6
2019-Feb-18 21:28S 24°05' W 046°14'614.0
2019-Feb-18 21:00S 24°02' W 046°20'4 7.4
2019-Feb-18 20:29S 23°59' W 046°17'2 0.2
2019-Feb-18 10:28S 23°57' W 046°19'1 1.6
2019-Feb-18 10:00S 23°58' W 046°18'2 3.7
2019-Feb-18 09:29S 23°60' W 046°18'3 6.3
2019-Feb-18 09:00S 24°02' W 046°21'2 4.4
2019-Feb-18 08:30S 24°03' W 046°18'3 6.5
2019-Feb-18 08:00S 24°04' W 046°15'3 6.6
2019-Feb-18 07:31S 24°05' W 046°12'4 7.7
2019-Feb-18 07:01S 24°07' W 046°08'4 7.7
2019-Feb-18 06:31S 24°09' W 046°04'4 7.7
2019-Feb-18 06:01S 24°11' W 046°01'6 7.8
2019-Feb-18 05:17S 24°13' W 045°55'7 8.0
2019-Feb-18 04:24S 24°16' W 045°48'4 8.1
2019-Feb-18 03:52S 24°18' W 045°44'35 9.1
2019-Feb-18 00:00S 24°12' W 045°06'90 7.8 360 / 31012.0 27.025.626.0
2019-Feb-17 12:22S 23°45' W 043°32'3 8.6
2019-Feb-17 12:00S 23°44' W 043°28'5 8.6
2019-Feb-17 11:27S 23°42' W 043°23'4 8.7
2019-Feb-17 11:00S 23°41' W 043°19'5 8.7
2019-Feb-17 10:29S 23°40' W 043°15'11 8.7
2019-Feb-17 09:16S 23°36' W 043°04'3 8.9
2019-Feb-17 08:53S 23°35' W 043°00'5 9.0
2019-Feb-17 08:19S 23°34' W 042°55'3 8.9
2019-Feb-17 08:00S 23°33' W 042°52'7 8.9
2019-Feb-17 07:15S 23°31' W 042°45'2 8.9
2019-Feb-17 07:00S 23°30' W 042°43'16 9.1
2019-Feb-17 05:16S 23°25' W 042°26'51 8.2
2019-Feb-16 23:00S 22°48' W 041°48'47 2.4 050 / 151011.0 25.023.626.0
2019-Feb-16 03:43S 23°17' W 042°28'4 6.1
2019-Feb-16 03:05S 23°17' W 042°32'1 6.8
2019-Feb-16 03:01S 23°17' W 042°33'4 6.8
2019-Feb-16 02:29S 23°18' W 042°37'15 6.7
2019-Feb-16 00:18S 23°12' W 042°52'5 7.5
2019-Feb-15 23:40S 23°09' W 042°56'4 8.0
2019-Feb-15 23:10S 23°06' W 042°59'844.2
2019-Feb-15 23:00S 23°00' W 042°54'8286.7 050 / 201011.0 27.025.626.0
2019-Feb-15 22:58S 23°05' W 043°00'4 8.1
2019-Feb-15 22:30S 23°03' W 043°03'4 7.8
2019-Feb-15 22:01S 23°00' W 043°06'612.9
2019-Feb-15 21:30S 22°54' W 043°09'2 3.9
2019-Feb-15 20:58S 22°54' W 043°11'0 0.0
2019-Feb-15 20:28S 22°54' W 043°11'0 0.0
2019-Feb-15 19:58S 22°54' W 043°11'0 0.0
2019-Feb-15 19:25S 22°54' W 043°11'0 0.0
2019-Feb-15 18:58S 22°54' W 043°11'0 0.0
2019-Feb-15 18:28S 22°54' W 043°11'0 0.0
2019-Feb-15 17:58S 22°54' W 043°11'0 0.0
2019-Feb-15 17:28S 22°54' W 043°11'0 0.0
2019-Feb-15 16:58S 22°54' W 043°11'0 0.0
2019-Feb-15 16:28S 22°54' W 043°11'0 0.0
2019-Feb-15 15:58S 22°54' W 043°11'0 0.0
2019-Feb-15 15:28S 22°54' W 043°11'0 0.0
2019-Feb-15 14:58S 22°54' W 043°11'0 0.0
2019-Feb-15 14:28S 22°54' W 043°11'0 0.0
2019-Feb-15 13:58S 22°54' W 043°11'0 0.0
2019-Feb-15 13:28S 22°54' W 043°11'0 0.0
2019-Feb-15 12:58S 22°54' W 043°11'0 0.0
2019-Feb-15 12:28S 22°54' W 043°11'0 0.0
2019-Feb-15 11:58S 22°54' W 043°11'1 1.2
2019-Feb-15 11:30S 22°53' W 043°11'4 8.1
2019-Feb-15 11:00S 22°57' W 043°08'612.0
2019-Feb-15 10:29S 23°03' W 043°10'713.6
2019-Feb-15 10:00S 23°09' W 043°14'715.2
2019-Feb-15 09:30S 23°13' W 043°21'714.9
2019-Feb-15 09:00S 23°16' W 043°27'714.8
2019-Feb-15 08:30S 23°20' W 043°35'814.6
2019-Feb-15 07:58S 23°23' W 043°42'814.3
2019-Feb-15 07:25S 23°27' W 043°50'11713.9
2019-Feb-14 23:00S 24°12' W 045°48'2215.9 050 / 201016.0 25.023.527.0
2019-Feb-14 21:38S 24°08' W 046°11'214.9
2019-Feb-14 21:30S 24°07' W 046°13'714.1
2019-Feb-14 21:00S 24°02' W 046°19'3 6.3
2019-Feb-14 20:28S 23°59' W 046°18'2 0.2
2019-Feb-14 10:21S 23°57' W 046°18'1 2.7
2019-Feb-14 09:59S 23°58' W 046°18'3 6.4
2019-Feb-14 09:30S 24°00' W 046°20'5 9.8
2019-Feb-14 09:00S 24°05' W 046°22'612.7
2019-Feb-14 08:30S 24°11' W 046°23'713.5
2019-Feb-14 08:00S 24°18' W 046°23'714.4
2019-Feb-14 07:30S 24°25' W 046°23'714.6
2019-Feb-14 07:00S 24°32' W 046°23'714.7
2019-Feb-14 06:30S 24°40' W 046°23'714.7
2019-Feb-14 06:00S 24°45' W 046°29'10414.9
2019-Feb-13 23:00S 26°06' W 047°42'5317.6 120 / 221019.0 25.023.527.0
2019-Feb-13 20:00S 26°48' W 048°18'   110 / 181016.010.8 25.0 27.0
Track history (hours):
 
Tides and Currents Weather Stations Pressure Air Temp Water Temp Dewpoint Dewpoint Depression Visibility Wind Speed Wind Dir Waves Ship Positions

Sovereign

Last reported at 2019-Feb-23 17:30 UTC. Time now 2019-Feb-23 17:56 UTC.
Position S 22°54' W 043°11'.

Length 269 m; draft 7.8 m.

Type: Passenger vessel. MMSI: 249539000.

Date/timePositionNaut miles runAvg speedWind from/ knotsBaromVisibWave heightAir tempDewpointWater temp
2019-Feb-23 17:30S 22°54' W 043°11'0 0.0
2019-Feb-23 16:57S 22°54' W 043°11'0 0.0
2019-Feb-23 16:30S 22°54' W 043°11'0 0.0
2019-Feb-23 16:00S 22°54' W 043°11'0 0.0
2019-Feb-23 15:30S 22°54' W 043°11'0 0.0
2019-Feb-23 15:00S 22°54' W 043°11'0 0.0
2019-Feb-23 14:30S 22°54' W 043°11'0 0.0
2019-Feb-23 14:00S 22°54' W 043°11'0 0.0
2019-Feb-23 13:30S 22°54' W 043°11'0 0.0
2019-Feb-23 13:00S 22°54' W 043°11'0 0.0
2019-Feb-23 12:27S 22°54' W 043°11'0 0.0
2019-Feb-23 12:00S 22°54' W 043°11'1 1.7
2019-Feb-23 11:30S 22°53' W 043°10'4 8.6
2019-Feb-23 11:00S 22°57' W 043°08'815.0
2019-Feb-23 10:30S 23°05' W 043°10'816.5
2019-Feb-23 10:00S 23°10' W 043°17'917.3
2019-Feb-23 09:30S 23°14' W 043°25'917.3
2019-Feb-23 09:00S 23°19' W 043°33'816.9
2019-Feb-23 08:30S 23°23' W 043°41'1116.3
2019-Feb-23 07:49S 23°28' W 043°52'713.7
2019-Feb-23 07:17S 23°31' W 043°59'414.4
2019-Feb-23 07:00S 23°33' W 044°03'714.8
2019-Feb-23 06:29S 23°36' W 044°11'1014.9
2019-Feb-23 05:50S 23°41' W 044°20'7115.1
2019-Feb-23 01:10S 24°14' W 045°29'316.9
2019-Feb-23 00:58S 24°15' W 045°32'2316.6
2019-Feb-22 23:36S 24°13' W 045°56'217.4
2019-Feb-22 23:30S 24°12' W 045°58'1017.4
2019-Feb-22 22:56S 24°07' W 046°08'817.7
2019-Feb-22 22:30S 24°04' W 046°15'612.3
2019-Feb-22 22:00S 23°60' W 046°20'2 0.2
2019-Feb-22 09:39S 23°58' W 046°18'1 4.9
2019-Feb-22 09:30S 23°58' W 046°18'3 6.4
2019-Feb-22 09:00S 24°00' W 046°20'3 6.1
2019-Feb-22 08:30S 24°03' W 046°19'4 8.8
2019-Feb-22 08:01S 24°04' W 046°14'3 6.7
2019-Feb-22 07:30S 24°05' W 046°11'4 7.5
2019-Feb-22 07:00S 24°06' W 046°07'4 7.7
2019-Feb-22 06:30S 24°08' W 046°03'7 7.6
2019-Feb-22 05:32S 24°13' W 045°57'46 8.4
2019-Feb-22 00:00S 24°12' W 045°06'70 7.7 050 / 41017.0 25.023.526.0
2019-Feb-21 14:52S 23°51' W 043°52'3 9.1
2019-Feb-21 14:29S 23°50' W 043°49'5 9.2
2019-Feb-21 13:58S 23°48' W 043°44'4 9.2
2019-Feb-21 13:29S 23°47' W 043°39'4 9.2
2019-Feb-21 13:00S 23°46' W 043°35'5 9.1
2019-Feb-21 12:30S 23°44' W 043°30'5 9.0
2019-Feb-21 12:00S 23°43' W 043°25'5 9.0
2019-Feb-21 11:29S 23°41' W 043°21'4 8.9
2019-Feb-21 11:00S 23°40' W 043°16'6 9.0
2019-Feb-21 10:18S 23°38' W 043°09'5 9.1
2019-Feb-21 09:46S 23°37' W 043°05'3 9.1
2019-Feb-21 09:26S 23°36' W 043°01'4 9.1
2019-Feb-21 09:00S 23°34' W 042°57'5 9.2
2019-Feb-21 08:30S 23°33' W 042°52'7 9.1
2019-Feb-21 07:45S 23°31' W 042°45'2 9.1
2019-Feb-21 07:29S 23°30' W 042°43'4 9.2
2019-Feb-21 07:00S 23°29' W 042°38'5 9.1
2019-Feb-21 06:30S 23°27' W 042°34'5 9.2
2019-Feb-21 06:00S 23°26' W 042°29'5 9.2
2019-Feb-21 05:28S 23°24' W 042°24'6 9.4
2019-Feb-21 04:51S 23°23' W 042°18'27 8.1
2019-Feb-21 01:30S 23°07' W 041°54'1912.8
2019-Feb-21 00:00S 22°48' W 041°48'6145.9 230 / 41015.0 25.023.526.0
2019-Feb-20 23:57S 22°53' W 041°52'9 0.7
2019-Feb-20 11:03S 22°44' W 041°53'9 7.0
2019-Feb-20 09:44S 22°53' W 041°52'11 8.0
2019-Feb-20 08:19S 23°04' W 041°56'3 7.9
2019-Feb-20 07:57S 23°06' W 041°58'7 8.2
2019-Feb-20 07:07S 23°09' W 042°04'17 8.2
2019-Feb-20 05:02S 23°15' W 042°22'2 8.3
2019-Feb-20 04:44S 23°15' W 042°24'2 8.3
2019-Feb-20 04:30S 23°16' W 042°26'4 8.3
2019-Feb-20 04:00S 23°17' W 042°30'9 8.6
2019-Feb-20 03:01S 23°18' W 042°40'16 8.2
2019-Feb-20 01:02S 23°09' W 042°54'1 8.3
2019-Feb-20 00:53S 23°08' W 042°55'3 8.3
2019-Feb-20 00:31S 23°06' W 042°58'4 8.4
2019-Feb-20 00:01S 23°03' W 043°02'4224.8
2019-Feb-20 00:00S 23°00' W 043°00'510.2 050 / 81012.0 27.025.627.0
2019-Feb-19 23:30S 23°01' W 043°05'611.8
2019-Feb-19 23:00S 22°56' W 043°08'3 6.8
2019-Feb-19 22:30S 22°54' W 043°11'0 0.3
2019-Feb-19 21:59S 22°54' W 043°11'0 0.0
2019-Feb-19 21:29S 22°54' W 043°11'0 0.0
2019-Feb-19 20:59S 22°54' W 043°11'0 0.0
2019-Feb-19 20:29S 22°54' W 043°11'0 0.0
2019-Feb-19 19:59S 22°54' W 043°11'0 0.0
2019-Feb-19 19:29S 22°54' W 043°11'0 0.0
2019-Feb-19 18:59S 22°54' W 043°11'0 0.0
2019-Feb-19 18:29S 22°54' W 043°11'0 0.0
2019-Feb-19 17:56S 22°54' W 043°11'0 0.0
2019-Feb-19 17:29S 22°54' W 043°11'0 0.0
2019-Feb-19 16:59S 22°54' W 043°11'0 0.0
2019-Feb-19 16:29S 22°54' W 043°11'0 0.0
2019-Feb-19 15:56S 22°54' W 043°11'0 0.0
2019-Feb-19 15:26S 22°54' W 043°11'0 0.0
2019-Feb-19 14:59S 22°54' W 043°11'0 0.0
2019-Feb-19 14:29S 22°54' W 043°11'0 0.0
2019-Feb-19 13:59S 22°54' W 043°11'0 0.0
2019-Feb-19 13:29S 22°54' W 043°11'0 0.0
2019-Feb-19 12:59S 22°54' W 043°11'0 0.0
2019-Feb-19 12:29S 22°54' W 043°11'0 0.2
2019-Feb-19 12:00S 22°54' W 043°11'3 5.1
2019-Feb-19 11:31S 22°55' W 043°09'4 8.0
2019-Feb-19 11:01S 22°59' W 043°09'510.1
2019-Feb-19 10:31S 23°03' W 043°10'510.0
2019-Feb-19 10:01S 23°08' W 043°11'713.8
2019-Feb-19 09:31S 23°13' W 043°17'815.3
2019-Feb-19 09:00S 23°16' W 043°25'815.2
2019-Feb-19 08:30S 23°19' W 043°32'714.8
2019-Feb-19 08:00S 23°22' W 043°40'714.5
2019-Feb-19 07:30S 23°25' W 043°47'814.6
2019-Feb-19 06:58S 23°29' W 043°54'714.7
2019-Feb-19 06:29S 23°32' W 044°01'814.9
2019-Feb-19 05:56S 23°36' W 044°09'1115.0
2019-Feb-19 05:14S 23°41' W 044°20'7213.7
2019-Feb-19 00:00S 24°12' W 045°30'3116.6 360 / 151013.0 25.023.526.0
2019-Feb-18 22:06S 24°09' W 046°04'215.4
2019-Feb-18 22:00S 24°08' W 046°06'815.6
2019-Feb-18 21:28S 24°05' W 046°14'614.0
2019-Feb-18 21:00S 24°02' W 046°20'4 7.4
2019-Feb-18 20:29S 23°59' W 046°17'2 0.2
2019-Feb-18 10:28S 23°57' W 046°19'1 1.6
2019-Feb-18 10:00S 23°58' W 046°18'2 3.7
2019-Feb-18 09:29S 23°60' W 046°18'3 6.3
2019-Feb-18 09:00S 24°02' W 046°21'2 4.4
2019-Feb-18 08:30S 24°03' W 046°18'3 6.5
2019-Feb-18 08:00S 24°04' W 046°15'3 6.6
2019-Feb-18 07:31S 24°05' W 046°12'4 7.7
2019-Feb-18 07:01S 24°07' W 046°08'4 7.7
2019-Feb-18 06:31S 24°09' W 046°04'4 7.7
2019-Feb-18 06:01S 24°11' W 046°01'6 7.8
2019-Feb-18 05:17S 24°13' W 045°55'7 8.0
2019-Feb-18 04:24S 24°16' W 045°48'4 8.1
2019-Feb-18 03:52S 24°18' W 045°44'35 9.1
2019-Feb-18 00:00S 24°12' W 045°06'90 7.8 360 / 31012.0 27.025.626.0
2019-Feb-17 12:22S 23°45' W 043°32'3 8.6
2019-Feb-17 12:00S 23°44' W 043°28'5 8.6
2019-Feb-17 11:27S 23°42' W 043°23'4 8.7
2019-Feb-17 11:00S 23°41' W 043°19'5 8.7
2019-Feb-17 10:29S 23°40' W 043°15'11 8.7
2019-Feb-17 09:16S 23°36' W 043°04'3 8.9
2019-Feb-17 08:53S 23°35' W 043°00'5 9.0
2019-Feb-17 08:19S 23°34' W 042°55'3 8.9
2019-Feb-17 08:00S 23°33' W 042°52'7 8.9
2019-Feb-17 07:15S 23°31' W 042°45'2 8.9
2019-Feb-17 07:00S 23°30' W 042°43'16 9.1
2019-Feb-17 05:16S 23°25' W 042°26'51 8.2
2019-Feb-16 23:00S 22°48' W 041°48'47 2.4 050 / 151011.0 25.023.626.0
2019-Feb-16 03:43S 23°17' W 042°28'4 6.1
2019-Feb-16 03:05S 23°17' W 042°32'1 6.8
2019-Feb-16 03:01S 23°17' W 042°33'4 6.8
2019-Feb-16 02:29S 23°18' W 042°37'15 6.7
2019-Feb-16 00:18S 23°12' W 042°52'5 7.5
2019-Feb-15 23:40S 23°09' W 042°56'4 8.0
2019-Feb-15 23:10S 23°06' W 042°59'844.2
2019-Feb-15 23:00S 23°00' W 042°54'8286.7 050 / 201011.0 27.025.626.0
2019-Feb-15 22:58S 23°05' W 043°00'4 8.1
2019-Feb-15 22:30S 23°03' W 043°03'4 7.8
2019-Feb-15 22:01S 23°00' W 043°06'612.9
2019-Feb-15 21:30S 22°54' W 043°09'2 3.9
2019-Feb-15 20:58S 22°54' W 043°11'0 0.0
2019-Feb-15 20:28S 22°54' W 043°11'0 0.0
2019-Feb-15 19:58S 22°54' W 043°11'0 0.0
2019-Feb-15 19:25S 22°54' W 043°11'0 0.0
2019-Feb-15 18:58S 22°54' W 043°11'0 0.0
2019-Feb-15 18:28S 22°54' W 043°11'0 0.0
2019-Feb-15 17:58S 22°54' W 043°11'0 0.0
2019-Feb-15 17:28S 22°54' W 043°11'0 0.0
2019-Feb-15 16:58S 22°54' W 043°11'0 0.0
2019-Feb-15 16:28S 22°54' W 043°11'0 0.0
2019-Feb-15 15:58S 22°54' W 043°11'0 0.0
2019-Feb-15 15:28S 22°54' W 043°11'0 0.0
2019-Feb-15 14:58S 22°54' W 043°11'0 0.0
2019-Feb-15 14:28S 22°54' W 043°11'0 0.0
2019-Feb-15 13:58S 22°54' W 043°11'0 0.0
2019-Feb-15 13:28S 22°54' W 043°11'0 0.0
2019-Feb-15 12:58S 22°54' W 043°11'0 0.0
2019-Feb-15 12:28S 22°54' W 043°11'0 0.0
2019-Feb-15 11:58S 22°54' W 043°11'1 1.2
2019-Feb-15 11:30S 22°53' W 043°11'4 8.1
2019-Feb-15 11:00S 22°57' W 043°08'612.0
2019-Feb-15 10:29S 23°03' W 043°10'713.6
2019-Feb-15 10:00S 23°09' W 043°14'715.2
2019-Feb-15 09:30S 23°13' W 043°21'714.9
2019-Feb-15 09:00S 23°16' W 043°27'714.8
2019-Feb-15 08:30S 23°20' W 043°35'814.6
2019-Feb-15 07:58S 23°23' W 043°42'814.3
2019-Feb-15 07:25S 23°27' W 043°50'11713.9
2019-Feb-14 23:00S 24°12' W 045°48'2215.9 050 / 201016.0 25.023.527.0
2019-Feb-14 21:38S 24°08' W 046°11'214.9
2019-Feb-14 21:30S 24°07' W 046°13'714.1
2019-Feb-14 21:00S 24°02' W 046°19'3 6.3
2019-Feb-14 20:28S 23°59' W 046°18'2 0.2
2019-Feb-14 10:21S 23°57' W 046°18'1 2.7
2019-Feb-14 09:59S 23°58' W 046°18'3 6.4
2019-Feb-14 09:30S 24°00' W 046°20'5 9.8
2019-Feb-14 09:00S 24°05' W 046°22'612.7
2019-Feb-14 08:30S 24°11' W 046°23'713.5
2019-Feb-14 08:00S 24°18' W 046°23'714.4
2019-Feb-14 07:30S 24°25' W 046°23'714.6
2019-Feb-14 07:00S 24°32' W 046°23'714.7
2019-Feb-14 06:30S 24°40' W 046°23'714.7
2019-Feb-14 06:00S 24°45' W 046°29'10414.9
2019-Feb-13 23:00S 26°06' W 047°42'5317.6 120 / 221019.0 25.023.527.0
2019-Feb-13 20:00S 26°48' W 048°18'   110 / 181016.010.8 25.0 27.0

Dump ship's entire track history